Rio Bravo, Texas
Current Conditions -  °F | °C
As of 8:55 AM on Monday 22 Dec 2014 (Local Time) from KHBV Reporting Station
Heavy Rain Heavy Rain  
Wind Chill: 56°   Ceiling: 200
Heat Index: 56°   Visibility: 2.5mi
Dew Point: 56°   Wind: 6mph
Humidity: 97%   Direction: 200°SSW
Pressure: 29.79"   Gusts: NA
Location:  27.4721°N, 99.1091°W
Report Text: KHBV 221455Z AUTO 20005KT 2 1/2SM +RA OVC002 14/13 A2979 RMK AO2 VIS 1 3/4V3 T01350131
Loading
Personal Weather Stations






























Interactive Weather Map New forecast layout! Learn more

10-Day Weather Forecast

Advertisements
Track Severe Weather on mobile